Time;durP1;ratioP1;P1;durP2;ratioP2;P2;SDS_P1;SDS_P2;PMS_P1;PMS_P2;Temp;Humidity;BMP_temperature;BMP_pressure;BME280_temperature;BME280_humidity;BME280_pressure;Samples;Min_cycle;Max_cycle;Signal;HPM_P1;HPM_P2
2023/01/07 00:02:28;;;;;;;5.53;5.03;;;12.90;44.30;;;;;;10442654;28;20282;-70
2023/01/07 00:07:32;;;;;;;5.03;4.53;;;12.80;44.70;;;;;;10439330;28;20319;-70
2023/01/07 00:12:35;;;;;;;4.53;4.20;;;12.80;44.10;;;;;;10436720;28;20228;-71
2023/01/07 00:17:38;;;;;;;4.67;4.27;;;12.70;44.20;;;;;;10438317;28;20237;-73
2023/01/07 00:22:43;;;;;;;4.57;4.17;;;12.70;44.40;;;;;;10441030;28;20240;-73
2023/01/07 00:27:46;;;;;;;3.87;3.57;;;12.70;44.60;;;;;;10439012;28;20241;-73
2023/01/07 00:38:07;;;;;;;4.33;4.03;;;12.70;44.30;;;;;;10439477;28;20232;-73
2023/01/07 00:43:10;;;;;;;4.13;3.83;;;12.70;44.40;;;;;;10446960;28;20243;-73
2023/01/07 00:48:13;;;;;;;4.40;4.00;;;12.70;44.30;;;;;;10446012;28;20229;-72
2023/01/07 00:53:18;;;;;;;4.03;3.73;;;12.70;44.40;;;;;;10447448;28;20735;-73
2023/01/07 00:58:24;;;;;;;4.03;3.60;;;12.70;44.50;;;;;;10448053;28;20603;-73
2023/01/07 01:03:28;;;;;;;3.73;3.43;;;12.70;44.50;;;;;;10447293;28;20245;-73
2023/01/07 01:08:33;;;;;;;4.33;3.70;;;12.70;44.40;;;;;;10447203;28;20241;-73
2023/01/07 01:13:37;;;;;;;3.47;3.17;;;12.70;44.40;;;;;;10443337;28;20237;-73
2023/01/07 01:18:40;;;;;;;3.87;3.57;;;12.70;44.30;;;;;;10445816;28;20229;-73
2023/01/07 01:23:45;;;;;;;3.33;3.13;;;12.70;44.30;;;;;;10447441;28;20237;-72
2023/01/07 01:28:48;;;;;;;4.10;3.70;;;12.70;44.20;;;;;;10439540;28;20284;-73
2023/01/07 01:33:53;;;;;;;5.27;3.20;;;12.70;44.10;;;;;;10445591;28;20233;-73
2023/01/07 01:38:58;;;;;;;3.10;2.90;;;12.70;44.30;;;;;;10443884;28;20229;-73
2023/01/07 01:44:01;;;;;;;3.20;2.90;;;12.70;44.20;;;;;;10443263;28;20312;-70
2023/01/07 01:49:14;;;;;;;3.20;2.90;;;12.70;44.10;;;;;;10443042;28;20236;-70
2023/01/07 01:54:20;;;;;;;3.20;3.00;;;12.70;44.20;;;;;;10443558;28;20256;-70
2023/01/07 01:59:27;;;;;;;2.70;2.50;;;12.70;44.00;;;;;;10443541;28;20235;-70
2023/01/07 02:04:33;;;;;;;3.37;3.07;;;12.70;44.10;;;;;;10442408;28;20283;-70
2023/01/07 02:09:37;;;;;;;3.23;2.97;;;12.70;44.00;;;;;;10443963;28;20716;-70
2023/01/07 02:15:01;;;;;;;3.73;2.77;;;12.60;44.00;;;;;;10439962;28;20743;-70
2023/01/07 02:20:43;;;;;;;2.83;2.63;;;12.60;44.20;;;;;;10438435;28;20213;-70
2023/01/07 02:26:14;;;;;;;3.30;2.70;;;12.60;44.20;;;;;;10402444;28;1144153;-70
2023/01/07 02:31:35;;;;;;;2.80;2.60;;;12.50;44.20;;;;;;10443277;28;20225;-70
2023/01/07 02:36:52;;;;;;;2.50;2.30;;;12.50;44.10;;;;;;10442628;28;20265;-70
2023/01/07 02:41:58;;;;;;;2.60;2.40;;;12.50;44.10;;;;;;10442617;28;20754;-70
2023/01/07 02:47:09;;;;;;;2.43;2.33;;;12.50;44.30;;;;;;10442581;28;20216;-70
2023/01/07 02:52:23;;;;;;;2.60;2.40;;;12.50;44.30;;;;;;10443007;28;20233;-70
2023/01/07 02:58:00;;;;;;;2.60;2.40;;;12.50;44.30;;;;;;10442751;28;20237;-70
2023/01/07 03:03:27;;;;;;;2.23;2.13;;;12.50;44.10;;;;;;10442238;28;20221;-70
2023/01/07 03:08:57;;;;;;;2.60;2.40;;;12.50;44.30;;;;;;10442623;28;20235;-70
2023/01/07 03:14:05;;;;;;;2.60;2.43;;;12.50;44.40;;;;;;10438326;28;20229;-70
2023/01/07 03:19:13;;;;;;;2.30;2.20;;;12.50;44.20;;;;;;10436249;28;20236;-70
2023/01/07 03:24:18;;;;;;;2.37;2.20;;;12.50;44.20;;;;;;10443142;28;20306;-70
2023/01/07 03:29:23;;;;;;;2.63;2.20;;;12.50;44.10;;;;;;10437041;28;20244;-70
2023/01/07 03:34:27;;;;;;;2.73;2.50;;;12.50;44.10;;;;;;10441885;28;20229;-70
2023/01/07 03:39:34;;;;;;;2.30;2.20;;;12.50;44.30;;;;;;10442064;28;20605;-70
2023/01/07 03:44:37;;;;;;;2.20;2.03;;;12.50;44.20;;;;;;10439442;28;20229;-70
2023/01/07 03:49:41;;;;;;;2.57;2.37;;;12.50;44.10;;;;;;10441288;28;20240;-70
2023/01/07 03:54:45;;;;;;;2.30;1.90;;;12.50;44.10;;;;;;10442518;28;20235;-70
2023/01/07 03:59:48;;;;;;;2.70;2.10;;;12.40;44.00;;;;;;10439760;28;20232;-70
2023/01/07 04:04:51;;;;;;;2.33;2.00;;;12.40;44.00;;;;;;10441249;28;20902;-70
2023/01/07 04:09:56;;;;;;;3.50;2.60;;;12.30;44.10;;;;;;10440446;28;20233;-70
2023/01/07 04:14:59;;;;;;;2.60;2.40;;;12.30;44.20;;;;;;10446563;28;20271;-70
2023/01/07 04:20:02;;;;;;;2.40;2.20;;;12.30;44.20;;;;;;10448310;28;20251;-70
2023/01/07 04:25:08;;;;;;;2.20;2.10;;;12.30;44.30;;;;;;10449114;28;20236;-70
2023/01/07 04:30:12;;;;;;;2.50;2.30;;;12.20;44.30;;;;;;10447883;28;20240;-70
2023/01/07 04:35:15;;;;;;;2.37;2.17;;;12.20;44.30;;;;;;10448748;28;20739;-70
2023/01/07 04:40:19;;;;;;;4.27;3.87;;;12.30;44.40;;;;;;10446473;28;20236;-70
2023/01/07 04:45:22;;;;;;;4.50;3.87;;;12.30;44.50;;;;;;10447624;28;20233;-70
2023/01/07 04:50:25;;;;;;;4.00;3.70;;;12.30;44.40;;;;;;10447269;28;20712;-70
2023/01/07 04:55:30;;;;;;;3.87;3.57;;;12.30;44.30;;;;;;10446994;28;20244;-70
2023/01/07 05:00:33;;;;;;;3.93;3.63;;;12.30;44.40;;;;;;10447894;28;20593;-70
2023/01/07 05:05:36;;;;;;;3.70;3.40;;;12.40;44.40;;;;;;10447297;28;20256;-70
2023/01/07 05:10:41;;;;;;;3.57;3.27;;;12.40;44.40;;;;;;10444568;28;20252;-70
2023/01/07 05:15:44;;;;;;;3.83;3.53;;;12.40;44.40;;;;;;10446749;28;20712;-70
2023/01/07 05:20:48;;;;;;;3.90;3.53;;;12.40;44.40;;;;;;10446470;28;20767;-70
2023/01/07 05:25:52;;;;;;;3.93;3.63;;;12.40;44.30;;;;;;10441313;28;20237;-70
2023/01/07 05:30:55;;;;;;;3.93;3.53;;;12.40;44.40;;;;;;10446343;28;20229;-70
2023/01/07 05:35:58;;;;;;;3.50;3.20;;;12.40;44.30;;;;;;10446090;28;20324;-70
2023/01/07 05:41:03;;;;;;;3.70;3.40;;;12.40;44.40;;;;;;10444972;28;20664;-70
2023/01/07 05:46:06;;;;;;;3.93;3.53;;;12.40;44.40;;;;;;10445855;28;20233;-70
2023/01/07 05:51:09;;;;;;;3.87;3.57;;;12.30;44.30;;;;;;10445981;28;20287;-70
2023/01/07 05:56:14;;;;;;;4.47;4.07;;;12.30;44.30;;;;;;10445496;28;20238;-70
2023/01/07 06:01:17;;;;;;;3.50;3.20;;;12.30;44.40;;;;;;10444738;28;20233;-70
2023/01/07 06:06:20;;;;;;;3.63;3.33;;;12.30;44.30;;;;;;10445470;28;20239;-70
2023/01/07 06:11:24;;;;;;;4.53;3.97;;;12.30;44.30;;;;;;10443172;28;20237;-70
2023/01/07 06:16:28;;;;;;;3.13;2.87;;;12.20;44.30;;;;;;10444967;28;20602;-70
2023/01/07 06:21:31;;;;;;;3.80;3.40;;;12.20;44.30;;;;;;10444094;28;20724;-70
2023/01/07 06:26:35;;;;;;;5.13;3.37;;;12.20;44.20;;;;;;10441685;28;20244;-70
2023/01/07 06:31:38;;;;;;;3.60;3.27;;;12.10;44.30;;;;;;10443923;28;20700;-70
2023/01/07 06:36:42;;;;;;;2.93;2.73;;;12.10;44.50;;;;;;10441457;28;20614;-70
2023/01/07 06:41:46;;;;;;;3.40;3.20;;;12.10;44.40;;;;;;10442172;28;20598;-70
2023/01/07 06:46:49;;;;;;;3.83;3.53;;;12.10;44.40;;;;;;10443190;28;20725;-70
2023/01/07 06:51:52;;;;;;;3.77;3.47;;;12.10;44.30;;;;;;10443050;28;20228;-70
2023/01/07 06:56:57;;;;;;;4.40;4.10;;;12.10;44.30;;;;;;10443555;28;20233;-70
2023/01/07 07:02:00;;;;;;;4.00;3.70;;;12.10;44.40;;;;;;10442497;28;20232;-70
2023/01/07 07:07:03;;;;;;;7.20;6.50;;;12.10;44.40;;;;;;10537442;22;20223;-75
2023/01/07 07:12:08;;;;;;;10.23;9.07;;;12.10;44.40;;;;;;10573283;28;20237;-75
2023/01/07 07:17:11;;;;;;;10.50;9.40;;;12.10;44.50;;;;;;10572997;28;20238;-75
2023/01/07 07:22:14;;;;;;;9.27;7.77;;;12.10;44.30;;;;;;10572670;28;20241;-75
2023/01/07 07:27:18;;;;;;;6.80;6.10;;;12.10;44.40;;;;;;10572275;28;20243;-75
2023/01/07 07:32:27;;;;;;;7.03;6.33;;;12.10;44.40;;;;;;10572757;28;20602;-75
2023/01/07 07:37:30;;;;;;;6.53;5.90;;;12.10;44.50;;;;;;10571416;28;20574;-76
2023/01/07 07:42:35;;;;;;;5.70;5.20;;;12.10;44.50;;;;;;10571639;28;20640;-75
2023/01/07 07:47:58;;;;;;;5.37;4.87;;;12.10;44.50;;;;;;10570824;28;20234;-75
2023/01/07 07:53:01;;;;;;;4.83;4.30;;;12.10;44.30;;;;;;10571233;28;20666;-75
2023/01/07 07:58:06;;;;;;;4.33;4.03;;;12.10;44.30;;;;;;10570558;28;20231;-76
2023/01/07 08:03:10;;;;;;;5.07;4.67;;;12.20;44.40;;;;;;10572118;28;20227;-75
2023/01/07 08:08:15;;;;;;;4.70;3.90;;;12.20;44.20;;;;;;10571956;28;20234;-75
2023/01/07 08:13:19;;;;;;;5.37;4.87;;;12.20;44.10;;;;;;10571418;28;20283;-74
2023/01/07 08:18:22;;;;;;;4.60;4.10;;;12.20;44.00;;;;;;10571835;28;20238;-75
2023/01/07 08:23:27;;;;;;;4.00;3.60;;;12.20;44.00;;;;;;10567885;28;20829;-75
2023/01/07 08:28:32;;;;;;;3.70;3.40;;;12.20;44.10;;;;;;10528767;28;20227;-75
2023/01/07 08:33:38;;;;;;;5.73;5.23;;;12.20;44.20;;;;;;10529845;28;20896;-75
2023/01/07 08:38:43;;;;;;;4.63;3.87;;;12.20;44.30;;;;;;10529193;28;20306;-75
2023/01/07 08:43:47;;;;;;;4.07;3.77;;;12.30;44.40;;;;;;10526864;28;20301;-74
2023/01/07 08:48:51;;;;;;;3.20;3.00;;;12.40;44.30;;;;;;10539316;28;20284;-76
2023/01/07 08:53:55;;;;;;;3.03;2.83;;;12.50;44.50;;;;;;10568312;28;20261;-76
2023/01/07 08:59:00;;;;;;;3.10;2.90;;;12.60;44.20;;;;;;10569437;28;20261;-76
2023/01/07 09:04:04;;;;;;;2.67;2.47;;;12.70;43.90;;;;;;10562910;28;20224;-77
2023/01/07 09:09:07;;;;;;;2.40;2.30;;;12.90;43.90;;;;;;10540644;28;20234;-77
2023/01/07 09:14:14;;;;;;;2.30;2.20;;;13.00;43.80;;;;;;10576128;28;20231;-76
2023/01/07 09:19:17;;;;;;;2.80;2.60;;;13.10;43.00;;;;;;10529064;22;20216;-69
2023/01/07 09:24:20;;;;;;;2.90;2.70;;;13.30;43.70;;;;;;10469587;28;20263;-69
2023/01/07 09:29:24;;;;;;;2.60;2.50;;;13.40;43.30;;;;;;10474698;28;20239;-69
2023/01/07 09:34:28;;;;;;;3.03;2.83;;;13.50;43.00;;;;;;10480653;28;20236;-68
2023/01/07 09:39:31;;;;;;;2.40;2.20;;;13.60;43.10;;;;;;10473365;28;20228;-69
2023/01/07 09:44:48;;;;;;;2.57;2.37;;;13.70;43.20;;;;;;10467280;28;20279;-68
2023/01/07 09:49:55;;;;;;;2.63;2.43;;;13.80;41.30;;;;;;10474868;28;20579;-68
2023/01/07 09:55:03;;;;;;;2.00;1.90;;;13.80;41.60;;;;;;10473330;28;20221;-71
2023/01/07 10:00:14;;;;;;;2.10;2.00;;;13.90;41.40;;;;;;10472088;28;20597;-70
2023/01/07 10:05:29;;;;;;;1.60;1.50;;;13.90;41.20;;;;;;10468195;28;20585;-71
2023/01/07 10:10:41;;;;;;;1.73;1.63;;;14.00;41.40;;;;;;10475559;28;20235;-71
2023/01/07 10:15:57;;;;;;;1.70;1.60;;;14.10;41.00;;;;;;10479191;28;20235;-70
2023/01/07 10:21:12;;;;;;;1.73;1.63;;;14.20;40.40;;;;;;10477171;28;20223;-71
2023/01/07 10:26:29;;;;;;;1.77;1.67;;;14.30;40.10;;;;;;10468169;28;20274;-71
2023/01/07 10:31:34;;;;;;;1.80;1.70;;;14.40;39.90;;;;;;10453612;28;20226;-71
2023/01/07 10:36:43;;;;;;;1.80;1.70;;;14.40;40.00;;;;;;10452825;28;20229;-71
2023/01/07 10:41:59;;;;;;;1.77;1.67;;;14.40;39.90;;;;;;10463564;28;20224;-70
2023/01/07 10:47:14;;;;;;;1.80;1.70;;;14.40;38.90;;;;;;10475425;28;20277;-70
2023/01/07 10:57:43;;;;;;;2.00;1.90;;;14.40;40.60;;;;;;10453425;28;20228;-77
2023/01/07 11:02:52;;;;;;;1.80;1.70;;;14.40;40.50;;;;;;10435888;28;20224;-76
2023/01/07 11:07:58;;;;;;;2.03;1.93;;;14.50;39.60;;;;;;10426594;28;20322;-76
2023/01/07 11:13:06;;;;;;;1.90;1.80;;;14.50;40.20;;;;;;10424110;28;20221;-76
2023/01/07 11:18:16;;;;;;;1.80;1.70;;;14.50;39.90;;;;;;10437331;28;20730;-76
2023/01/07 11:23:29;;;;;;;1.33;1.30;;;14.50;39.00;;;;;;10431530;28;20233;-75
2023/01/07 11:28:33;;;;;;;1.90;1.80;;;14.40;38.10;;;;;;10432697;28;20251;-77
2023/01/07 11:33:41;;;;;;;2.20;2.10;;;14.40;39.80;;;;;;10445779;28;20685;-77
2023/01/07 11:39:11;;;;;;;2.00;1.90;;;14.40;39.00;;;;;;10445769;28;20229;-76
2023/01/07 11:44:16;;;;;;;2.13;1.93;;;14.40;38.90;;;;;;10442743;28;20243;-76
2023/01/07 11:49:26;;;;;;;2.20;2.10;;;14.50;39.30;;;;;;10436022;28;20339;-76
2023/01/07 11:54:30;;;;;;;1.90;1.80;;;14.50;38.40;;;;;;10429522;28;20229;-76
2023/01/07 11:59:33;;;;;;;2.20;2.10;;;14.60;39.70;;;;;;10437098;28;20243;-76
2023/01/07 12:04:39;;;;;;;2.43;2.23;;;14.60;39.60;;;;;;10439982;28;20236;-77
2023/01/07 12:09:43;;;;;;;2.00;1.90;;;14.60;39.00;;;;;;10434476;28;20235;-77
2023/01/07 12:14:47;;;;;;;2.20;2.10;;;14.60;39.30;;;;;;10428659;28;20247;-76
2023/01/07 12:20:26;;;;;;;2.40;2.30;;;14.60;39.60;;;;;;10429898;28;20696;-76
2023/01/07 12:25:40;;;;;;;3.20;2.30;;;14.60;37.80;;;;;;10435103;28;20248;-76
2023/01/07 12:31:12;;;;;;;2.40;2.30;;;14.60;38.40;;;;;;10441833;28;20302;-77
2023/01/07 12:36:29;;;;;;;2.20;2.10;;;14.60;37.30;;;;;;10439270;28;20236;-77
2023/01/07 12:41:37;;;;;;;2.37;2.27;;;14.50;38.70;;;;;;10442700;28;20747;-77
2023/01/07 12:46:44;;;;;;;3.10;2.47;;;14.50;38.60;;;;;;10450920;28;20237;-77
2023/01/07 12:51:55;;;;;;;2.40;2.30;;;14.50;38.70;;;;;;10449481;28;20225;-77
2023/01/07 12:57:03;;;;;;;2.30;2.20;;;14.40;38.20;;;;;;10453442;28;20229;-77
2023/01/07 13:02:19;;;;;;;2.23;2.13;;;14.40;38.60;;;;;;10446761;28;20224;-77
2023/01/07 13:07:28;;;;;;;2.50;2.30;;;14.40;37.70;;;;;;10440713;28;20264;-77
2023/01/07 13:12:45;;;;;;;2.40;2.30;;;14.40;38.30;;;;;;10431354;28;20237;-74
2023/01/07 13:17:52;;;;;;;2.50;2.40;;;14.50;39.50;;;;;;10447919;28;21101;-77
2023/01/07 13:22:58;;;;;;;2.50;2.30;;;14.50;39.00;;;;;;10443982;28;20774;-77
2023/01/07 13:28:43;;;;;;;2.63;2.50;;;14.60;38.60;;;;;;10451258;28;20232;-77
2023/01/07 13:33:53;;;;;;;2.33;2.10;;;14.60;38.20;;;;;;10275365;28;20727;-76
2023/01/07 13:39:24;;;;;;;2.50;2.30;;;14.50;38.50;;;;;;10414824;28;20247;-76
2023/01/07 13:45:01;;;;;;;2.20;2.07;;;14.50;37.70;;;;;;10440928;28;20312;-76
2023/01/07 13:50:05;;;;;;;2.17;2.07;;;14.60;38.20;;;;;;10434225;28;20233;-76
2023/01/07 13:55:33;;;;;;;2.37;2.27;;;14.50;39.70;;;;;;10448119;28;20243;-76
2023/01/07 14:00:46;;;;;;;2.20;2.00;;;14.50;38.20;;;;;;10445065;28;20229;-76
2023/01/07 14:05:50;;;;;;;2.10;2.00;;;14.60;38.20;;;;;;10444762;28;20312;-76
2023/01/07 14:10:55;;;;;;;2.03;1.93;;;14.60;39.00;;;;;;10440310;28;20236;-77
2023/01/07 14:16:12;;;;;;;2.07;1.97;;;14.60;38.60;;;;;;10442496;28;20255;-76
2023/01/07 14:21:23;;;;;;;1.80;1.70;;;14.60;37.90;;;;;;10443712;28;20229;-76
2023/01/07 14:26:34;;;;;;;2.40;2.20;;;14.60;38.20;;;;;;10434255;28;20234;-77
2023/01/07 14:31:37;;;;;;;2.50;2.40;;;14.60;37.90;;;;;;10431952;28;20228;-76
2023/01/07 14:37:13;;;;;;;17.70;13.60;;;14.60;38.60;;;;;;10438290;28;20785;-77
2023/01/07 14:42:41;;;;;;;7.27;6.57;;;14.60;37.90;;;;;;10441973;28;20228;-76
2023/01/07 14:47:53;;;;;;;7.57;5.60;;;14.50;37.90;;;;;;10442174;28;20286;-76
2023/01/07 14:53:30;;;;;;;3.60;3.27;;;14.40;38.00;;;;;;10447333;28;20601;-77
2023/01/07 14:58:51;;;;;;;4.53;3.87;;;14.40;38.20;;;;;;10446255;28;20760;-76
2023/01/07 15:04:20;;;;;;;11.97;10.83;;;14.40;38.10;;;;;;10445383;28;20271;-77
2023/01/07 15:20:51;;;;;;;3.20;3.00;;;14.20;38.20;;;;;;10314184;28;20237;-77
2023/01/07 15:25:59;;;;;;;3.90;3.70;;;14.20;38.30;;;;;;10414105;28;20225;-74
2023/01/07 15:31:14;;;;;;;4.13;3.83;;;14.10;38.50;;;;;;10432728;28;20213;-75
2023/01/07 15:36:18;;;;;;;3.50;3.30;;;14.10;38.00;;;;;;10436818;28;20235;-76
2023/01/07 15:41:31;;;;;;;3.47;3.17;;;14.10;38.90;;;;;;10444688;28;20704;-76
2023/01/07 15:46:40;;;;;;;3.00;2.80;;;14.10;39.40;;;;;;10437496;28;20239;-75
2023/01/07 15:51:46;;;;;;;3.07;2.83;;;14.10;38.90;;;;;;10434506;28;20282;-76
2023/01/07 15:56:52;;;;;;;8.73;4.93;;;14.20;38.90;;;;;;10431988;28;20609;-75
2023/01/07 16:02:04;;;;;;;5.73;5.07;;;14.10;38.40;;;;;;10432375;28;20229;-76
2023/01/07 16:07:22;;;;;;;10.63;7.57;;;14.10;37.90;;;;;;10461753;28;20232;-76
2023/01/07 16:12:31;;;;;;;8.13;6.67;;;13.90;37.30;;;;;;10446213;28;20236;-77
2023/01/07 16:17:36;;;;;;;8.43;7.13;;;13.80;37.20;;;;;;10454735;28;20229;-76
2023/01/07 16:22:42;;;;;;;14.03;9.53;;;13.60;37.30;;;;;;10454394;28;20315;-76
2023/01/07 16:27:46;;;;;;;10.27;8.50;;;13.40;37.50;;;;;;10454460;28;20237;-76
2023/01/07 16:32:53;;;;;;;8.33;7.23;;;13.10;37.50;;;;;;10454393;28;20719;-76
2023/01/07 16:37:56;;;;;;;13.23;9.50;;;13.00;37.60;;;;;;10453828;28;20239;-76
2023/01/07 16:42:59;;;;;;;9.13;7.97;;;12.90;37.90;;;;;;10453808;28;20233;-76
2023/01/07 16:48:20;;;;;;;9.90;7.30;;;12.80;37.90;;;;;;10453344;28;20233;-76
2023/01/07 16:53:29;;;;;;;10.13;7.33;;;12.70;37.50;;;;;;10454473;28;20696;-76
2023/01/07 16:58:39;;;;;;;8.17;7.37;;;12.60;37.70;;;;;;10454535;28;20233;-77
2023/01/07 17:03:51;;;;;;;18.17;15.27;;;12.50;37.60;;;;;;10454029;28;20233;-77
2023/01/07 17:08:56;;;;;;;19.57;17.47;;;12.40;37.70;;;;;;10453520;28;20236;-77
2023/01/07 17:13:59;;;;;;;23.00;18.67;;;12.30;37.70;;;;;;10453384;28;20993;-78
2023/01/07 17:19:23;;;;;;;19.63;16.07;;;12.10;37.70;;;;;;10452113;28;20221;-77
2023/01/07 17:24:47;;;;;;;20.07;16.07;;;11.90;37.70;;;;;;10449497;28;20220;-77
2023/01/07 17:29:50;;;;;;;16.00;13.83;;;11.80;37.70;;;;;;10447447;28;20229;-77
2023/01/07 17:34:55;;;;;;;20.97;16.70;;;11.70;38.00;;;;;;10454716;28;20736;-76
2023/01/07 17:39:58;;;;;;;19.90;16.27;;;11.70;37.90;;;;;;10453071;28;20236;-77
2023/01/07 17:45:01;;;;;;;17.97;15.33;;;11.60;38.10;;;;;;10452844;28;20225;-77
2023/01/07 17:50:06;;;;;;;17.50;14.07;;;11.50;37.70;;;;;;10454289;28;20763;-78
2023/01/07 17:55:15;;;;;;;17.67;13.33;;;11.30;37.60;;;;;;10451597;28;20236;-77
2023/01/07 18:00:21;;;;;;;14.00;12.50;;;11.20;37.90;;;;;;10443973;28;20267;-77
2023/01/07 18:05:26;;;;;;;12.80;11.50;;;11.10;38.00;;;;;;10453045;28;20278;-77
2023/01/07 18:12:28;;;;;;;17.77;15.77;;;11.00;38.00;;;;;;10452845;28;20228;-77
2023/01/07 18:15:54;;;;;;;17.13;15.53;;;10.80;37.90;;;;;;10451923;28;20232;-77
2023/01/07 18:20:59;;;;;;;13.73;12.30;;;11.00;38.00;;;;;;10452456;28;20637;-76
2023/01/07 18:26:04;;;;;;;11.10;10.00;;;10.80;37.70;;;;;;10451967;28;20241;-77
2023/01/07 18:31:08;;;;;;;10.40;9.50;;;10.80;37.90;;;;;;10450414;28;20231;-76
2023/01/07 18:36:12;;;;;;;10.97;9.87;;;10.70;38.00;;;;;;10451424;28;20241;-77
2023/01/07 18:41:15;;;;;;;13.13;11.83;;;10.60;37.90;;;;;;10451310;28;20225;-77
2023/01/07 18:46:18;;;;;;;12.30;11.10;;;10.40;38.00;;;;;;10451695;28;20241;-77
2023/01/07 18:51:23;;;;;;;11.27;10.13;;;10.40;38.30;;;;;;10451227;28;20236;-76
2023/01/07 18:56:26;;;;;;;11.57;10.37;;;10.30;38.20;;;;;;10450700;28;20282;-76
2023/01/07 19:01:30;;;;;;;14.03;12.53;;;10.20;38.00;;;;;;10450326;28;20225;-76
2023/01/07 19:06:37;;;;;;;18.97;16.30;;;10.20;38.20;;;;;;10450405;28;20240;-77
2023/01/07 19:11:40;;;;;;;17.20;15.40;;;10.10;38.00;;;;;;10450489;28;20716;-77
2023/01/07 19:16:44;;;;;;;14.70;13.20;;;10.10;38.10;;;;;;10449896;28;20728;-77
2023/01/07 19:21:49;;;;;;;11.90;10.70;;;10.00;38.10;;;;;;10450447;28;20270;-77
2023/01/07 19:26:52;;;;;;;11.67;10.50;;;9.90;39.20;;;;;;10449749;28;20853;-77
2023/01/07 19:31:55;;;;;;;14.83;13.40;;;9.80;39.30;;;;;;10449833;28;20233;-76
2023/01/07 19:37:04;;;;;;;27.73;21.93;;;9.80;39.40;;;;;;10448896;28;20228;-77
2023/01/07 19:42:08;;;;;;;23.33;18.60;;;9.70;39.40;;;;;;10448392;28;20231;-77
2023/01/07 19:47:11;;;;;;;13.47;12.07;;;9.70;39.50;;;;;;10449881;28;20335;-77
2023/01/07 19:52:16;;;;;;;11.30;10.20;;;9.60;39.60;;;;;;10448082;28;20247;-77
2023/01/07 19:57:20;;;;;;;11.77;9.17;;;9.60;39.60;;;;;;10414729;28;20233;-76
2023/01/07 20:02:24;;;;;;;9.70;8.70;;;9.50;39.50;;;;;;10443363;28;20696;-76
2023/01/07 20:07:32;;;;;;;6.97;6.37;;;9.50;39.40;;;;;;10448352;28;20237;-76
2023/01/07 20:12:36;;;;;;;11.47;10.43;;;9.40;39.30;;;;;;10450224;28;20252;-77
2023/01/07 20:17:39;;;;;;;12.00;10.77;;;9.40;39.10;;;;;;10451174;28;20240;-77
2023/01/07 20:22:45;;;;;;;10.30;9.37;;;9.20;39.00;;;;;;10451282;28;20732;-76
2023/01/07 20:27:48;;;;;;;9.77;8.87;;;9.10;39.40;;;;;;10450867;28;20712;-77
2023/01/07 20:32:52;;;;;;;15.57;13.97;;;9.00;39.50;;;;;;10450336;28;20228;-76
2023/01/07 20:37:56;;;;;;;13.83;11.73;;;8.90;39.50;;;;;;10448587;28;20751;-77
2023/01/07 20:42:59;;;;;;;11.07;9.97;;;8.80;39.90;;;;;;10448485;28;20225;-77
2023/01/07 20:48:03;;;;;;;12.07;10.83;;;8.80;39.90;;;;;;10455103;28;20241;-76
2023/01/07 20:53:09;;;;;;;9.57;8.67;;;8.70;39.80;;;;;;10451681;28;20229;-76
2023/01/07 20:58:12;;;;;;;10.03;9.13;;;8.70;39.80;;;;;;10457831;28;20295;-76
2023/01/07 21:03:15;;;;;;;11.77;10.67;;;8.60;39.70;;;;;;10458338;28;20759;-75
2023/01/07 21:08:20;;;;;;;12.80;11.47;;;8.60;39.70;;;;;;10457034;28;20229;-77
2023/01/07 21:13:24;;;;;;;14.57;10.93;;;8.60;39.70;;;;;;10459872;28;20720;-76
2023/01/07 21:18:27;;;;;;;9.97;9.00;;;8.50;39.70;;;;;;10454049;28;20240;-76
2023/01/07 21:23:32;;;;;;;9.23;8.33;;;8.40;39.60;;;;;;10452336;28;20229;-76
2023/01/07 21:28:36;;;;;;;10.17;9.17;;;8.40;39.60;;;;;;10451418;28;20236;-76
2023/01/07 21:33:40;;;;;;;10.37;9.37;;;8.40;39.60;;;;;;10451057;28;20228;-76
2023/01/07 21:38:45;;;;;;;8.63;7.80;;;8.40;39.60;;;;;;10450558;28;20717;-76
2023/01/07 21:43:49;;;;;;;9.43;8.53;;;8.30;39.50;;;;;;10450618;28;20316;-76
2023/01/07 21:48:53;;;;;;;10.47;9.47;;;8.30;39.50;;;;;;10450245;28;20233;-76
2023/01/07 21:53:58;;;;;;;10.03;9.03;;;8.20;39.40;;;;;;10450059;28;20239;-75
2023/01/07 21:59:01;;;;;;;8.40;7.60;;;8.20;39.40;;;;;;10449711;28;20232;-75
2023/01/07 22:04:05;;;;;;;8.43;7.63;;;8.00;39.30;;;;;;10449406;28;21108;-75
2023/01/07 22:09:13;;;;;;;7.57;6.90;;;7.80;39.30;;;;;;10448983;28;20244;-75
2023/01/07 22:14:18;;;;;;;8.17;7.37;;;7.80;39.50;;;;;;10449182;28;20233;-75
2023/01/07 22:19:24;;;;;;;8.47;7.57;;;7.70;39.50;;;;;;10448760;28;20245;-75
2023/01/07 22:24:29;;;;;;;7.67;6.87;;;7.60;39.50;;;;;;10448916;28;20233;-75
2023/01/07 22:29:32;;;;;;;6.93;6.33;;;7.60;39.70;;;;;;10448164;28;20827;-75
2023/01/07 22:34:35;;;;;;;7.73;7.03;;;7.50;39.70;;;;;;10448444;28;20228;-76
2023/01/07 22:39:43;;;;;;;8.23;7.43;;;7.50;39.90;;;;;;10447914;28;20299;-74
2023/01/07 22:44:49;;;;;;;8.17;7.37;;;7.50;40.00;;;;;;10447646;28;20240;-74
2023/01/07 22:49:53;;;;;;;8.70;7.90;;;7.50;40.00;;;;;;10447058;28;20347;-74
2023/01/07 22:54:59;;;;;;;8.47;7.67;;;7.50;39.90;;;;;;10446632;28;20240;-75
2023/01/07 23:00:03;;;;;;;8.37;7.57;;;7.50;40.00;;;;;;10446336;28;20236;-75
2023/01/07 23:05:06;;;;;;;7.73;7.03;;;7.50;40.00;;;;;;10447565;28;20256;-74
2023/01/07 23:10:11;;;;;;;9.27;8.37;;;7.50;39.70;;;;;;10448121;28;20233;-73
2023/01/07 23:15:14;;;;;;;8.10;7.30;;;7.50;39.70;;;;;;10448411;28;20615;-73
2023/01/07 23:20:17;;;;;;;8.13;7.33;;;7.40;39.70;;;;;;10447621;28;20247;-74
2023/01/07 23:25:22;;;;;;;9.37;8.50;;;7.40;39.80;;;;;;10447966;28;20233;-73
2023/01/07 23:30:25;;;;;;;9.27;8.33;;;7.30;39.70;;;;;;10447766;28;20255;-74
2023/01/07 23:35:29;;;;;;;10.63;9.53;;;7.30;39.80;;;;;;10474300;28;20258;-74
2023/01/07 23:40:36;;;;;;;9.13;8.30;;;7.20;39.70;;;;;;10488714;28;20220;-74
2023/01/07 23:45:39;;;;;;;9.20;8.17;;;7.20;39.80;;;;;;10488707;28;20244;-74
2023/01/07 23:50:42;;;;;;;8.30;7.50;;;7.10;39.80;;;;;;10488338;28;20236;-74
2023/01/07 23:55:52;;;;;;;9.00;8.03;;;7.00;40.10;;;;;;10488337;28;20239;-74
